createdAt,value
2022-08-05T00:01:48.606Z,72.56
2022-08-05T00:04:08.361Z,72.46
2022-08-05T00:06:33.201Z,72.73
2022-08-05T00:08:58.305Z,71.86
2022-08-05T00:11:30.508Z,72.57
2022-08-05T00:13:53.017Z,72.43
2022-08-05T00:16:17.421Z,72.81
2022-08-05T00:18:44.236Z,72.19
2022-08-05T00:21:10.143Z,71.54
2022-08-05T00:23:46.470Z,71.75
2022-08-05T00:26:02.866Z,71.48
2022-08-05T00:28:29.425Z,70.73
2022-08-05T00:30:55.606Z,70.98
2022-08-05T00:34:55.634Z,70.34
2022-08-05T00:36:16.139Z,70.03
2022-08-05T00:38:14.688Z,70.74
2022-08-05T00:40:41.064Z,70.87
2022-08-05T00:43:07.822Z,70.15
2022-08-05T00:45:38.801Z,70.32
2022-08-05T00:48:05.605Z,71.26
2022-08-05T00:50:26.606Z,71.62
2022-08-05T00:52:53.473Z,72.12
2022-08-05T00:55:19.321Z,72.58
2022-08-05T00:57:58.508Z,72.63
2022-08-05T01:00:13.310Z,72.13
2022-08-05T01:02:38.581Z,72.29
2022-08-05T01:05:05.078Z,71.55
2022-08-05T01:07:31.750Z,72.25
2022-08-05T01:09:57.750Z,72.56
2022-08-05T01:12:24.117Z,72.19
2022-08-05T01:14:50.478Z,72.84
2022-08-05T01:17:16.893Z,74.31
2022-08-05T01:20:00.681Z,75.14
2022-08-05T01:22:10.852Z,74.24
2022-08-05T01:24:36.026Z,74.12
2022-08-05T01:27:17.904Z,74.75
2022-08-05T01:29:30.773Z,75.22
2022-08-05T01:31:56.825Z,76.84
2022-08-05T01:34:26.850Z,77.01
2022-08-05T01:36:49.571Z,77.09
2022-08-05T01:39:16.094Z,77.01
2022-08-05T01:41:44.369Z,76.48
2022-08-05T01:44:09.905Z,75.87
2022-08-05T01:46:41.476Z,76.85
2022-08-05T01:49:01.552Z,76.78
2022-08-05T01:51:29.395Z,76.33
2022-08-05T01:53:56.961Z,76.53
2022-08-05T01:58:13.077Z,77.12
2022-08-05T01:58:47.357Z,77.08
2022-08-05T02:01:13.497Z,77.31
2022-08-05T02:03:39.889Z,77.43
2022-08-05T02:06:37.035Z,78.19
2022-08-05T02:08:32.636Z,78.11
2022-08-05T02:10:59.140Z,77.64
2022-08-05T02:13:25.502Z,77.46
2022-08-05T02:15:51.883Z,75.39
2022-08-05T02:18:32.691Z,74.61
2022-08-05T02:20:44.771Z,74.73
2022-08-05T02:23:11.146Z,75.15
2022-08-05T02:25:49.553Z,75.13
2022-08-05T02:28:08.926Z,74.84
2022-08-05T02:30:30.278Z,74.25
2022-08-05T02:32:56.655Z,74.46
2022-08-05T02:35:28.259Z,74.80
2022-08-05T02:37:53.883Z,75.57
2022-08-05T02:40:15.796Z,75.84
2022-08-05T02:42:42.178Z,75.57
2022-08-05T02:45:08.592Z,76.06
2022-08-05T02:47:58.722Z,76.42
2022-08-05T02:50:01.322Z,76.85
2022-08-05T02:52:30.465Z,77.13
2022-08-05T02:54:54.113Z,76.55
2022-08-05T02:58:10.281Z,76.09
2022-08-05T02:59:50.111Z,76.71
2022-08-05T03:02:13.362Z,77.20
2022-08-05T03:04:39.719Z,77.68
2022-08-05T03:07:06.143Z,76.78
2022-08-05T03:09:37.661Z,77.12
2022-08-05T03:11:58.949Z,76.82
2022-08-05T03:14:25.326Z,76.99
2022-08-05T03:16:53.469Z,77.54
2022-08-05T03:19:33.126Z,77.68
2022-08-05T03:21:49.554Z,76.96
2022-08-05T03:24:10.919Z,76.37
2022-08-05T03:26:37.436Z,76.74
2022-08-05T03:29:03.825Z,76.79
2022-08-05T03:31:56.549Z,77.26
2022-08-05T03:33:56.547Z,77.74
2022-08-05T03:36:29.776Z,77.74
2022-08-05T03:38:52.564Z,77.83
2022-08-05T03:41:15.713Z,77.21
2022-08-05T03:44:09.023Z,77.22
2022-08-05T03:46:08.449Z,76.45
2022-08-05T03:48:35.073Z,76.58
2022-08-05T03:52:35.165Z,76.77
2022-08-05T03:55:51.169Z,77.29
2022-08-05T03:56:10.514Z,76.51
2022-08-05T03:58:20.304Z,76.50
2022-08-05T04:00:51.379Z,76.12
2022-08-05T04:03:26.597Z,75.59
2022-08-05T04:05:40.183Z,75.91
2022-08-05T04:08:14.828Z,75.98
2022-08-05T04:10:37.743Z,75.53
2022-08-05T04:12:58.974Z,75.50
2022-08-05T04:15:24.902Z,75.70
2022-08-05T04:17:56.258Z,75.48
2022-08-05T04:20:17.677Z,75.45
2022-08-05T04:22:44.039Z,75.03
2022-08-05T04:25:10.891Z,74.47
2022-08-05T04:27:43.606Z,74.19
2022-08-05T04:30:03.720Z,73.91
2022-08-05T04:32:30.996Z,73.87
2022-08-05T04:34:57.613Z,73.60
2022-08-05T04:37:23.085Z,73.54
2022-08-05T04:39:52.738Z,73.00
2022-08-05T04:42:15.196Z,72.77
2022-08-05T04:44:41.657Z,72.15
2022-08-05T04:47:08.772Z,71.40
2022-08-05T04:50:02.025Z,71.03
2022-08-05T04:52:00.891Z,70.01
2022-08-05T04:54:27.284Z,68.87
2022-08-05T04:56:56.298Z,67.40
2022-08-05T04:59:24.015Z,65.09
2022-08-05T05:02:07.624Z,64.04
2022-08-05T05:04:12.789Z,62.65
2022-08-05T05:06:44.924Z,61.87
2022-08-05T05:09:05.918Z,61.65
2022-08-05T05:11:41.562Z,60.21
2022-08-05T05:13:58.749Z,60.80
2022-08-05T05:16:30.413Z,56.23
2022-08-05T05:19:09.193Z,50.49
2022-08-05T05:21:18.082Z,48.02
2022-08-05T05:24:04.050Z,47.57
2022-08-05T05:26:10.864Z,49.96
2022-08-05T05:28:42.661Z,53.46
2022-08-05T05:31:05.631Z,53.40
2022-08-05T05:33:30.265Z,50.65
2022-08-05T05:35:56.622Z,47.64
2022-08-05T05:38:27.502Z,47.41
2022-08-05T05:40:51.314Z,47.54
2022-08-05T05:43:15.844Z,45.37
2022-08-05T05:45:42.626Z,44.31
2022-08-05T05:48:08.927Z,44.07
2022-08-05T05:50:35.039Z,43.56
2022-08-05T05:53:01.475Z,43.58
2022-08-05T05:55:52.363Z,42.27
2022-08-05T05:57:54.236Z,42.92
2022-08-05T06:00:20.729Z,44.41
2022-08-05T06:02:47.207Z,46.36
2022-08-05T06:05:16.445Z,46.15
2022-08-05T06:07:42.010Z,44.17
2022-08-05T06:10:10.272Z,42.82
2022-08-05T06:12:32.751Z,41.83
2022-08-05T06:14:59.132Z,42.75
2022-08-05T06:17:31.087Z,41.95
2022-08-05T06:19:56.742Z,41.79
2022-08-05T06:22:18.365Z,43.11
2022-08-05T06:24:48.280Z,43.81
2022-08-05T06:28:09.409Z,43.36
2022-08-05T06:29:46.644Z,43.13
2022-08-05T06:32:03.905Z,42.74
2022-08-05T06:34:30.271Z,42.82
2022-08-05T06:36:57.961Z,42.76
2022-08-05T06:39:24.620Z,43.33
2022-08-05T06:41:49.419Z,43.25
2022-08-05T06:44:15.797Z,41.54
2022-08-05T06:46:42.195Z,40.71
2022-08-05T06:49:08.685Z,40.40
2022-08-05T06:51:35.046Z,41.07
2022-08-05T06:54:01.695Z,41.86
2022-08-05T06:56:27.870Z,41.86
2022-08-05T06:58:54.219Z,41.68
2022-08-05T07:01:21.059Z,42.49
2022-08-05T07:03:47.015Z,41.43
2022-08-05T07:06:14.302Z,40.84
2022-08-05T07:08:39.911Z,40.59
2022-08-05T07:11:06.298Z,41.14
2022-08-05T07:13:57.147Z,40.84
2022-08-05T07:16:01.174Z,41.45
2022-08-05T07:18:30.253Z,40.77
2022-08-05T07:20:51.881Z,40.68
2022-08-05T07:23:26.448Z,39.95
2022-08-05T07:25:56.032Z,39.85
2022-08-05T07:28:17.117Z,39.56
2022-08-05T07:30:39.109Z,39.04
2022-08-05T07:33:05.499Z,39.32
2022-08-05T07:36:03.137Z,39.53
2022-08-05T07:37:56.764Z,39.81
2022-08-05T07:40:32.342Z,39.86
2022-08-05T07:42:49.582Z,38.85
2022-08-05T07:45:15.965Z,38.35
2022-08-05T07:47:42.752Z,37.20
2022-08-05T07:50:08.742Z,36.56
2022-08-05T07:52:35.124Z,35.87
2022-08-05T07:55:01.509Z,35.40
2022-08-05T07:57:51.163Z,34.23
2022-08-05T07:59:54.362Z,33.30
2022-08-05T08:02:20.755Z,32.97
2022-08-05T08:04:47.308Z,32.38
2022-08-05T08:07:13.567Z,32.41
2022-08-05T08:09:39.949Z,31.80
2022-08-05T08:12:14.681Z,31.89
2022-08-05T08:14:32.702Z,31.86
2022-08-05T08:16:59.074Z,32.78
2022-08-05T08:20:21.453Z,32.67
2022-08-05T08:21:51.825Z,32.43
2022-08-05T08:24:18.285Z,33.09
2022-08-05T08:26:44.675Z,32.88
2022-08-05T08:30:03.585Z,32.55
2022-08-05T08:31:37.676Z,31.83
2022-08-05T08:34:04.062Z,31.40
2022-08-05T08:36:47.694Z,30.84
2022-08-05T08:38:57.388Z,31.09
2022-08-05T08:41:26.209Z,30.19
2022-08-05T08:45:18.598Z,30.73
2022-08-05T08:46:16.238Z,30.99
2022-08-05T08:49:07.540Z,30.05
2022-08-05T08:51:54.566Z,30.40
2022-08-05T08:53:35.194Z,30.19
2022-08-05T08:56:04.879Z,29.77
2022-08-05T08:58:43.683Z,28.20
2022-08-05T09:00:54.496Z,29.83
2022-08-05T09:03:20.969Z,29.75
2022-08-05T09:06:07.941Z,28.75
2022-08-05T09:08:13.615Z,28.80
2022-08-05T09:10:40.218Z,27.79
2022-08-05T09:13:06.422Z,28.05
2022-08-05T09:15:37.040Z,27.67
2022-08-05T09:17:59.154Z,26.99
2022-08-05T09:20:37.491Z,26.17
2022-08-05T09:22:52.089Z,25.86
2022-08-05T09:25:23.832Z,25.57
2022-08-05T09:28:04.669Z,24.77
2022-08-05T09:30:16.494Z,24.01
2022-08-05T09:32:46.221Z,24.54
2022-08-05T09:35:04.021Z,24.19
2022-08-05T09:38:12.689Z,23.57
2022-08-05T09:39:56.941Z,23.63
2022-08-05T09:42:28.453Z,23.46
2022-08-05T09:44:50.507Z,24.14
2022-08-05T09:47:16.024Z,23.97
2022-08-05T09:49:55.001Z,23.81
2022-08-05T09:52:08.767Z,23.44
2022-08-05T09:54:35.195Z,23.88
2022-08-05T09:57:02.031Z,24.42
2022-08-05T09:59:27.990Z,24.37
2022-08-05T10:01:57.832Z,23.60
2022-08-05T10:04:29.357Z,23.42
2022-08-05T10:06:54.847Z,24.51
2022-08-05T10:09:25.338Z,25.36
2022-08-05T10:11:39.835Z,24.93
2022-08-05T10:14:06.195Z,25.67
2022-08-05T10:16:33.866Z,24.66
2022-08-05T10:18:58.985Z,24.16
2022-08-05T10:21:25.375Z,24.29
2022-08-05T10:23:59.445Z,23.82
2022-08-05T10:26:18.222Z,24.41
2022-08-05T10:28:45.047Z,24.14
2022-08-05T10:32:48.339Z,24.41
2022-08-05T10:33:37.347Z,24.44
2022-08-05T10:36:03.734Z,24.94
2022-08-05T10:38:33.276Z,25.42
2022-08-05T10:40:57.900Z,24.67
2022-08-05T10:43:23.291Z,24.76
2022-08-05T10:45:49.267Z,23.59
2022-08-05T10:48:30.043Z,23.85
2022-08-05T10:50:42.025Z,23.82
2022-08-05T10:53:08.415Z,23.27
2022-08-05T10:56:03.583Z,23.51
2022-08-05T10:58:01.182Z,23.60
2022-08-05T11:00:27.551Z,23.27
2022-08-05T11:02:54.108Z,23.99
2022-08-05T11:05:20.446Z,24.58
2022-08-05T11:08:03.181Z,24.55
2022-08-05T11:10:13.234Z,25.01
2022-08-05T11:12:41.193Z,25.31
2022-08-05T11:15:11.825Z,24.33
2022-08-05T11:17:57.401Z,24.74
2022-08-05T11:20:10.048Z,24.96
2022-08-05T11:22:25.217Z,24.68
2022-08-05T11:25:16.563Z,24.55
2022-08-05T11:27:17.985Z,25.14
2022-08-05T11:29:44.386Z,25.64
2022-08-05T11:32:10.774Z,26.13
2022-08-05T11:34:37.144Z,25.23
2022-08-05T11:37:06.144Z,25.01
2022-08-05T11:39:29.983Z,25.08
2022-08-05T11:42:04.615Z,25.41
2022-08-05T11:44:53.029Z,25.35
2022-08-05T11:46:58.119Z,25.02
2022-08-05T11:49:15.475Z,24.71
2022-08-05T11:51:44.668Z,24.74
2022-08-05T11:54:08.259Z,25.47
2022-08-05T11:56:40.661Z,25.22
2022-08-05T11:59:01.231Z,25.84
2022-08-05T12:01:27.642Z,26.07
2022-08-05T12:03:55.487Z,26.20
2022-08-05T12:06:20.396Z,26.55
2022-08-05T12:08:49.843Z,27.60
2022-08-05T12:11:17.249Z,27.99
2022-08-05T12:13:48.763Z,28.46
2022-08-05T12:16:14.894Z,27.96
2022-08-05T12:18:33.158Z,27.26
2022-08-05T12:20:58.797Z,26.59
2022-08-05T12:23:25.233Z,26.63
2022-08-05T12:25:51.627Z,26.59
2022-08-05T12:28:18.102Z,27.07
2022-08-05T12:30:45.751Z,26.68
2022-08-05T12:33:27.443Z,26.95
2022-08-05T12:35:39.835Z,26.33
2022-08-05T12:38:03.626Z,27.29
2022-08-05T12:40:30.046Z,27.70
2022-08-05T12:42:56.405Z,27.78
2022-08-05T12:45:22.787Z,27.48
2022-08-05T12:48:17.206Z,27.72
2022-08-05T12:50:15.566Z,27.34
2022-08-05T12:52:42.808Z,26.91
2022-08-05T12:55:08.295Z,26.58
2022-08-05T12:58:49.881Z,26.09
2022-08-05T13:01:57.606Z,25.91
2022-08-05T13:02:30.579Z,25.75
2022-08-05T13:04:54.706Z,26.00
2022-08-05T13:07:35.798Z,25.61
2022-08-05T13:09:50.445Z,25.67
2022-08-05T13:12:16.234Z,25.22
2022-08-05T13:14:39.565Z,25.08
2022-08-05T13:17:05.975Z,26.33
2022-08-05T13:19:51.760Z,26.45
2022-08-05T13:21:58.803Z,26.32
2022-08-05T13:24:36.529Z,27.07
2022-08-05T13:26:51.546Z,27.19
2022-08-05T13:29:18.977Z,28.35
2022-08-05T13:32:04.178Z,28.51
2022-08-05T13:34:20.920Z,28.47
2022-08-05T13:36:37.161Z,28.71
2022-08-05T13:39:08.390Z,28.55
2022-08-05T13:41:37.438Z,28.35
2022-08-05T13:43:56.396Z,28.16
2022-08-05T13:47:01.835Z,27.72
2022-08-05T13:48:58.906Z,27.06
2022-08-05T13:51:15.669Z,27.43
2022-08-05T13:53:47.437Z,27.55
2022-08-05T13:56:18.081Z,27.96
2022-08-05T13:58:34.770Z,28.06
2022-08-05T14:01:01.169Z,27.79
2022-08-05T14:03:27.580Z,27.91
2022-08-05T14:06:25.765Z,27.58
2022-08-05T14:08:27.743Z,27.46
2022-08-05T14:10:46.651Z,28.07
2022-08-05T14:13:13.072Z,27.11
2022-08-05T14:16:05.724Z,27.02
2022-08-05T14:18:05.886Z,27.70
2022-08-05T14:20:32.273Z,28.07
2022-08-05T14:22:58.656Z,28.01
2022-08-05T14:25:28.036Z,28.36
2022-08-05T14:27:51.520Z,28.22
2022-08-05T14:30:20.488Z,28.53
2022-08-05T14:32:44.338Z,28.67
2022-08-05T14:35:11.418Z,28.65
2022-08-05T14:37:45.713Z,28.32
2022-08-05T14:40:03.502Z,28.16
2022-08-05T14:42:29.982Z,27.48
2022-08-05T14:44:56.702Z,26.91
2022-08-05T14:48:02.632Z,27.21
2022-08-05T14:49:59.172Z,27.87
2022-08-05T14:52:30.582Z,27.21
2022-08-05T14:54:53.307Z,27.79
2022-08-05T14:57:09.803Z,27.81
2022-08-05T14:59:35.490Z,28.08
2022-08-05T15:02:01.090Z,28.68
2022-08-05T15:04:29.121Z,28.29
2022-08-05T15:06:53.759Z,28.09
2022-08-05T15:09:51.531Z,28.73
2022-08-05T15:11:52.767Z,29.18
2022-08-05T15:14:34.210Z,29.01
2022-08-05T15:16:39.298Z,28.81
2022-08-05T15:19:05.672Z,28.88
2022-08-05T15:21:32.073Z,28.57
2022-08-05T15:23:58.457Z,28.56
2022-08-05T15:26:32.106Z,29.21
2022-08-05T15:28:52.068Z,29.12
2022-08-05T15:31:17.594Z,29.33
2022-08-05T15:34:05.247Z,28.97
2022-08-05T15:36:17.289Z,28.89
2022-08-05T15:38:41.775Z,29.41
2022-08-05T15:41:22.322Z,29.64
2022-08-05T15:43:29.761Z,29.61
2022-08-05T15:46:00.078Z,29.99
2022-08-05T15:48:22.403Z,30.28
2022-08-05T15:50:48.806Z,30.59
2022-08-05T15:53:15.197Z,30.76
2022-08-05T15:56:02.909Z,30.67
2022-08-05T15:58:08.014Z,30.55
2022-08-05T16:00:50.326Z,30.52
2022-08-05T16:03:00.910Z,30.76
2022-08-05T16:05:28.445Z,30.82
2022-08-05T16:07:53.619Z,31.03
2022-08-05T16:10:25.325Z,31.15
2022-08-05T16:12:46.456Z,31.27
2022-08-05T16:15:18.161Z,31.51
2022-08-05T16:17:39.210Z,31.92
2022-08-05T16:20:11.243Z,31.59
2022-08-05T16:22:33.760Z,31.73
2022-08-05T16:24:58.356Z,31.85
2022-08-05T16:27:32.332Z,31.82
2022-08-05T16:29:51.373Z,31.97
2022-08-05T16:32:17.554Z,32.67
2022-08-05T16:34:43.922Z,31.92
2022-08-05T16:38:01.885Z,32.03
2022-08-05T16:40:04.969Z,31.69
2022-08-05T16:42:14.698Z,31.80
2022-08-05T16:44:29.461Z,31.82
2022-08-05T16:46:56.385Z,31.95
2022-08-05T16:49:22.359Z,32.04
2022-08-05T16:51:51.380Z,32.44
2022-08-05T16:54:18.575Z,32.44
2022-08-05T16:56:41.872Z,32.17
2022-08-05T16:59:08.697Z,32.30
2022-08-05T17:01:54.673Z,32.54
2022-08-05T17:04:00.724Z,32.52
2022-08-05T17:06:27.085Z,32.73
2022-08-05T17:08:54.608Z,32.93
2022-08-05T17:11:19.828Z,33.18
2022-08-05T17:13:46.207Z,33.27
2022-08-05T17:16:29.756Z,33.71
2022-08-05T17:18:39.075Z,33.54
2022-08-05T17:21:05.475Z,34.15
2022-08-05T17:24:04.959Z,34.41
2022-08-05T17:25:58.224Z,34.33
2022-08-05T17:28:24.661Z,34.28
2022-08-05T17:30:52.360Z,34.78
2022-08-05T17:33:17.409Z,34.74
2022-08-05T17:36:08.159Z,35.32
2022-08-05T17:38:10.282Z,35.16
2022-08-05T17:40:36.689Z,35.19
2022-08-05T17:43:03.096Z,35.04
2022-08-05T17:45:37.893Z,34.99
2022-08-05T17:47:56.381Z,35.33
2022-08-05T17:50:27.777Z,35.22
2022-08-05T17:52:52.868Z,35.52
2022-08-05T17:55:15.118Z,35.76
2022-08-05T17:57:41.543Z,35.26
2022-08-05T18:00:07.933Z,35.09
2022-08-05T18:02:34.410Z,34.92
2022-08-05T18:05:01.078Z,35.00
2022-08-05T18:07:32.970Z,35.31
2022-08-05T18:09:59.446Z,35.54
2022-08-05T18:12:24.303Z,35.71
2022-08-05T18:14:46.446Z,35.95
2022-08-05T18:18:00.134Z,36.14
2022-08-05T18:19:39.040Z,36.50
2022-08-05T18:22:08.499Z,37.27
2022-08-05T18:24:31.805Z,38.01
2022-08-05T18:26:58.224Z,39.22
2022-08-05T18:29:40.406Z,39.06
2022-08-05T18:31:51.040Z,38.81
2022-08-05T18:34:17.529Z,38.10
2022-08-05T18:36:43.899Z,37.82
2022-08-05T18:39:42.591Z,37.90
2022-08-05T18:42:00.435Z,37.60
2022-08-05T18:44:05.840Z,37.83
2022-08-05T18:46:29.377Z,37.57
2022-08-05T18:48:55.769Z,37.79
2022-08-05T18:52:03.340Z,37.82
2022-08-05T18:53:50.388Z,38.04
2022-08-05T18:56:14.935Z,38.15
2022-08-05T18:58:43.003Z,38.22
2022-08-05T19:01:08.068Z,38.53
2022-08-05T19:03:55.015Z,38.72
2022-08-05T19:06:11.605Z,38.81
2022-08-05T19:08:30.843Z,39.30
2022-08-05T19:10:53.797Z,39.88
2022-08-05T19:13:20.163Z,40.47
2022-08-05T19:15:58.260Z,41.88
2022-08-05T19:18:21.059Z,42.44
2022-08-05T19:20:41.440Z,41.77
2022-08-05T19:23:07.949Z,44.77
2022-08-05T19:25:41.917Z,44.58
2022-08-05T19:27:58.554Z,45.94
2022-08-05T19:30:24.976Z,45.90
2022-08-05T19:32:51.337Z,45.71
2022-08-05T19:35:17.729Z,46.27
2022-08-05T19:38:04.234Z,46.36
2022-08-05T19:40:10.844Z,46.56
2022-08-05T19:42:37.074Z,47.91
2022-08-05T19:45:06.014Z,48.30
2022-08-05T19:47:29.759Z,46.98
2022-08-05T19:49:57.167Z,45.99
2022-08-05T19:52:31.242Z,45.92
2022-08-05T19:54:48.969Z,46.10
2022-08-05T19:57:15.437Z,46.36
2022-08-05T19:59:56.536Z,47.21
2022-08-05T20:02:08.186Z,47.76
2022-08-05T20:04:34.626Z,48.11
2022-08-05T20:07:01.032Z,48.04
2022-08-05T20:09:27.424Z,47.83
2022-08-05T20:11:53.786Z,47.79
2022-08-05T20:14:23.519Z,47.33
2022-08-05T20:16:46.561Z,47.68
2022-08-05T20:19:12.978Z,48.12
2022-08-05T20:21:39.372Z,47.72
2022-08-05T20:24:05.743Z,48.17
2022-08-05T20:26:32.259Z,48.29
2022-08-05T20:29:00.765Z,50.33
2022-08-05T20:31:37.341Z,50.84
2022-08-05T20:33:51.431Z,52.32
2022-08-05T20:36:18.110Z,53.07
2022-08-05T20:38:54.611Z,53.45
2022-08-05T20:41:10.718Z,53.83
2022-08-05T20:43:59.824Z,54.17
2022-08-05T20:46:03.493Z,54.71
2022-08-05T20:48:29.857Z,55.08
2022-08-05T20:50:56.241Z,54.80
2022-08-05T20:53:36.270Z,55.56
2022-08-05T20:56:07.738Z,56.52
2022-08-05T20:58:15.418Z,56.64
2022-08-05T21:00:49.719Z,56.20
2022-08-05T21:03:08.351Z,57.15
2022-08-05T21:05:47.883Z,56.83
2022-08-05T21:08:00.977Z,56.68
2022-08-05T21:10:27.359Z,58.05
2022-08-05T21:13:08.186Z,58.15
2022-08-05T21:15:20.123Z,58.45
2022-08-05T21:17:46.494Z,57.94
2022-08-05T21:20:12.865Z,58.70
2022-08-05T21:22:39.263Z,58.68
2022-08-05T21:25:05.938Z,58.52
2022-08-05T21:27:38.645Z,58.25
2022-08-05T21:29:58.554Z,59.33
2022-08-05T21:32:27.091Z,59.64
2022-08-05T21:35:08.390Z,58.57
2022-08-05T21:37:17.724Z,58.39
2022-08-05T21:39:44.121Z,58.75
2022-08-05T21:42:19.826Z,58.47
2022-08-05T21:44:36.842Z,58.65
2022-08-05T21:47:03.216Z,58.37
2022-08-05T21:49:59.501Z,58.70
2022-08-05T21:52:22.133Z,58.90
2022-08-05T21:54:27.835Z,58.20
2022-08-05T21:56:51.464Z,58.24
2022-08-05T21:59:24.252Z,60.22
2022-08-05T22:01:41.657Z,60.58
2022-08-05T22:04:07.953Z,60.33
2022-08-05T22:06:35.660Z,61.49
2022-08-05T22:09:00.824Z,61.59
2022-08-05T22:11:34.992Z,62.17
2022-08-05T22:14:19.619Z,61.78
2022-08-05T22:16:41.133Z,62.95
2022-08-05T22:18:49.233Z,63.52
2022-08-05T22:21:18.618Z,63.75
2022-08-05T22:24:01.180Z,63.35
2022-08-05T22:26:10.745Z,63.52
2022-08-05T22:28:32.027Z,64.22
2022-08-05T22:31:05.109Z,64.76
2022-08-05T22:33:58.513Z,64.89
2022-08-05T22:35:51.280Z,64.30
2022-08-05T22:38:19.667Z,65.45
2022-08-05T22:40:49.565Z,65.79
2022-08-05T22:43:10.384Z,66.17
2022-08-05T22:45:36.753Z,66.22
2022-08-05T22:48:03.117Z,65.89
2022-08-05T22:50:29.509Z,65.56
2022-08-05T22:52:55.944Z,65.87
2022-08-05T22:55:22.320Z,66.17
2022-08-05T22:57:48.983Z,66.05
2022-08-05T23:00:17.781Z,65.69
2022-08-05T23:02:46.478Z,66.54
2022-08-05T23:05:07.946Z,67.03
2022-08-05T23:07:43.825Z,67.48
2022-08-05T23:10:01.403Z,67.13
2022-08-05T23:12:28.630Z,66.62
2022-08-05T23:14:53.383Z,67.04
2022-08-05T23:17:24.068Z,67.47
2022-08-05T23:19:50.925Z,68.11
2022-08-05T23:22:12.510Z,67.52
2022-08-05T23:24:38.963Z,67.75
2022-08-05T23:27:05.342Z,67.36
2022-08-05T23:29:34.599Z,68.05
2022-08-05T23:31:58.258Z,68.35
2022-08-05T23:34:24.948Z,68.66
2022-08-05T23:36:50.997Z,68.41
2022-08-05T23:39:31.988Z,68.15
2022-08-05T23:41:48.574Z,68.39
2022-08-05T23:44:10.168Z,68.11
2022-08-05T23:46:37.516Z,69.00
2022-08-05T23:49:16.133Z,68.40
2022-08-05T23:51:29.309Z,68.62
2022-08-05T23:54:01.064Z,68.39
2022-08-05T23:56:27.490Z,68.68
2022-08-05T23:58:48.465Z,69.53
